Time;durP1;ratioP1;P1;durP2;ratioP2;P2;SDS_P1;SDS_P2;PMS_P1;PMS_P2;Temp;Humidity;BMP_temperature;BMP_pressure;BME280_temperature;BME280_humidity;BME280_pressure;Samples;Min_cycle;Max_cycle;Signal;HPM_P1;HPM_P2
2021/12/28 00:02:17;;;;;;;33.00;22.60;;;;;;;;;;5049355;28;20491;-69
2021/12/28 00:04:43;;;;;;;34.95;23.23;;;5.90;99.90;;;;;;5031556;28;20045;-69
2021/12/28 00:07:09;;;;;;;30.80;20.48;;;;;;;;;;5031529;28;20040;-69
2021/12/28 00:09:35;;;;;;;35.45;24.13;;;;;;;;;;5050071;28;20037;-69
2021/12/28 00:12:01;;;;;;;34.72;23.33;;;;;;;;;;5049509;28;20514;-69
2021/12/28 00:14:35;;;;;;;27.48;20.58;;;;;;;;;;5031458;28;20521;-69
2021/12/28 00:19:59;;;;;;;36.08;24.00;;;6.10;99.90;;;;;;5019417;28;20123;-69
2021/12/28 00:22:24;;;;;;;33.30;22.13;;;6.20;99.90;;;;;;5052965;28;20124;-70
2021/12/28 00:24:50;;;;;;;36.10;23.75;;;;;;;;;;5035416;28;20597;-69
2021/12/28 00:27:16;;;;;;;38.20;24.20;;;;;;;;;;5052989;28;20454;-70
2021/12/28 00:29:43;;;;;;;37.95;25.10;;;;;;;;;;5035896;28;20499;-69
2021/12/28 00:32:09;;;;;;;43.25;26.38;;;6.20;99.90;;;;;;5052865;28;20494;-69
2021/12/28 00:34:35;;;;;;;39.72;25.65;;;;;;;;;;5053004;28;20037;-69
2021/12/28 00:37:01;;;;;;;41.15;25.77;;;6.10;99.90;;;;;;5052707;28;20388;-69
2021/12/28 00:39:27;;;;;;;40.22;26.48;;;;;;;;;;5035184;28;20037;-69
2021/12/28 00:41:55;;;;;;;39.13;24.17;;;;;;;;;;5052383;28;20052;-71
2021/12/28 00:44:21;;;;;;;52.25;30.70;;;;;;;;;;5034584;28;20139;-68
2021/12/28 00:46:47;;;;;;;51.15;30.23;;;;;;;;;;5052626;28;20124;-69
2021/12/28 00:49:13;;;;;;;47.55;29.42;;;;;;;;;;5052857;28;20102;-69
2021/12/28 00:51:39;;;;;;;50.25;30.52;;;;;;;;;;5052534;28;20040;-69
2021/12/28 00:54:05;;;;;;;50.65;30.90;;;6.30;99.90;;;;;;5052378;28;20047;-69
2021/12/28 00:56:30;;;;;;;46.80;30.17;;;6.10;99.90;;;;;;5052211;28;20120;-69
2021/12/28 00:58:56;;;;;;;49.80;31.17;;;;;;;;;;5052510;28;20072;-68
2021/12/28 01:01:22;;;;;;;45.50;28.65;;;;;;;;;;5030757;28;20380;-68
2021/12/28 01:03:48;;;;;;;54.83;31.50;;;;;;;;;;5051800;28;20120;-69
2021/12/28 01:06:14;;;;;;;55.58;32.33;;;;;;;;;;5052269;28;20086;-68
2021/12/28 01:08:40;;;;;;;63.03;34.63;;;;;;;;;;5034485;28;20499;-68
2021/12/28 01:11:07;;;;;;;54.22;32.35;;;;;;;;;;5052251;28;20029;-68
2021/12/28 01:13:33;;;;;;;70.13;35.83;;;;;;;;;;5052222;28;20411;-68
2021/12/28 01:15:59;;;;;;;47.22;29.83;;;;;;;;;;5051782;28;20041;-68
2021/12/28 01:18:25;;;;;;;60.85;32.85;;;;;;;;;;5052140;28;20041;-68
2021/12/28 01:20:52;;;;;;;73.82;35.33;;;;;;;;;;5052268;28;20043;-68
2021/12/28 01:23:19;;;;;;;56.55;30.75;;;6.90;99.90;;;;;;5033999;28;20429;-68
2021/12/28 01:25:44;;;;;;;66.45;33.63;;;6.40;99.90;;;;;;5051348;28;20033;-68
2021/12/28 01:28:11;;;;;;;63.47;33.05;;;6.90;99.90;;;;;;5052067;28;20040;-68
2021/12/28 01:30:39;;;;;;;72.78;35.70;;;6.60;99.90;;;;;;5051241;28;20032;-68
2021/12/28 01:33:05;;;;;;;81.75;39.83;;;6.40;99.90;;;;;;5067560;28;20075;-68
2021/12/28 01:35:32;;;;;;;102.22;39.05;;;6.50;99.90;;;;;;5051514;28;20094;-68
2021/12/28 01:37:58;;;;;;;68.00;34.13;;;;;;;;;;5051473;28;20047;-68
2021/12/28 01:40:27;;;;;;;72.20;33.33;;;;;;;;;;5052107;28;20037;-68
2021/12/28 01:42:57;;;;;;;82.57;38.70;;;6.90;99.90;;;;;;5051871;28;20041;-68
2021/12/28 01:45:33;;;;;;;96.10;41.15;;;;;;;;;;5050935;28;20037;-67
2021/12/28 01:47:58;;;;;;;83.68;39.20;;;6.60;99.90;;;;;;5051766;28;20033;-68
2021/12/28 01:50:24;;;;;;;79.60;36.53;;;6.80;99.90;;;;;;5051348;28;20510;-67
2021/12/28 01:52:50;;;;;;;83.97;37.13;;;;;;;;;;5033138;28;20098;-68
2021/12/28 01:55:16;;;;;;;99.18;42.33;;;;;;;;;;5051450;28;20106;-68
2021/12/28 01:57:44;;;;;;;65.30;34.15;;;;;;;;;;5051668;28;20185;-67
2021/12/28 02:00:11;;;;;;;105.53;42.03;;;;;;;;;;5051370;28;20045;-68
2021/12/28 02:02:37;;;;;;;79.95;35.20;;;;;;;;;;5051055;28;20045;-67
2021/12/28 02:05:03;;;;;;;140.60;45.22;;;;;;;;;;5050828;28;20440;-67
2021/12/28 02:07:29;;;;;;;84.00;38.45;;;;;;;;;;5051296;28;20044;-67
2021/12/28 02:09:55;;;;;;;97.90;39.08;;;;;;;;;;5051669;28;20037;-67
2021/12/28 02:12:22;;;;;;;138.98;48.95;;;;;;;;;;5051150;28;20498;-67
2021/12/28 02:14:48;;;;;;;77.70;34.13;;;6.60;99.90;;;;;;5050761;28;20048;-68
2021/12/28 02:17:14;;;;;;;114.82;39.85;;;;;;;;;;5050784;28;20542;-67
2021/12/28 02:19:40;;;;;;;94.45;39.38;;;;;;;;;;5050638;28;20037;-67
2021/12/28 02:22:07;;;;;;;79.85;35.03;;;;;;;;;;5051228;28;20435;-67
2021/12/28 02:24:33;;;;;;;82.30;33.00;;;;;;;;;;5050489;28;20084;-68
2021/12/28 02:26:59;;;;;;;85.25;37.85;;;6.80;99.90;;;;;;5051070;28;20048;-67
2021/12/28 02:29:25;;;;;;;123.07;41.85;;;;;;;;;;5032907;28;20049;-67
2021/12/28 02:31:55;;;;;;;86.18;38.70;;;;;;;;;;5051022;28;20557;-68
2021/12/28 02:34:23;;;;;;;80.53;37.03;;;;;;;;;;5050197;28;20517;-67
2021/12/28 02:36:49;;;;;;;94.97;37.92;;;;;;;;;;5049389;28;20049;-67
2021/12/28 02:39:15;;;;;;;73.10;35.33;;;;;;;;;;5037623;28;20534;-67
2021/12/28 02:41:41;;;;;;;115.53;43.00;;;;;;;;;;5015152;28;20060;-67
2021/12/28 02:44:07;;;;;;;144.18;45.53;;;;;;;;;;5032719;28;20052;-67
2021/12/28 02:46:33;;;;;;;101.32;39.47;;;;;;;;;;5049951;28;20041;-67
2021/12/28 02:48:59;;;;;;;85.13;36.30;;;;;;;;;;5032924;28;20040;-67
2021/12/28 02:51:25;;;;;;;89.85;37.42;;;6.90;99.90;;;;;;5025090;28;20514;-68
2021/12/28 02:53:51;;;;;;;87.22;36.90;;;7.00;99.90;;;;;;5050859;28;20116;-67
2021/12/28 02:56:18;;;;;;;87.68;35.70;;;;;;;;;;5032088;28;20064;-68
2021/12/28 02:58:46;;;;;;;90.63;37.95;;;7.30;99.90;;;;;;5050558;28;20048;-67
2021/12/28 03:01:15;;;;;;;66.43;30.75;;;;;;;;;;5050509;28;20052;-67
2021/12/28 03:03:42;;;;;;;87.38;37.05;;;;;;;;;;5030891;28;20045;-67
2021/12/28 03:06:09;;;;;;;153.82;46.97;;;;;;;;;;5029852;28;20041;-67
2021/12/28 03:08:37;;;;;;;81.82;34.90;;;;;;;;;;5030551;28;20042;-68
2021/12/28 03:11:04;;;;;;;97.95;39.75;;;7.20;99.90;;;;;;5030981;28;20225;-67
2021/12/28 03:13:35;;;;;;;121.70;42.60;;;;;;;;;;5030343;28;20393;-68
2021/12/28 03:16:01;;;;;;;66.18;30.35;;;7.00;99.90;;;;;;5030057;28;20043;-67
2021/12/28 03:18:27;;;;;;;101.70;38.28;;;;;;;;;;5030323;28;20045;-68
2021/12/28 03:20:53;;;;;;;76.18;33.17;;;;;;;;;;5030595;28;20045;-68
2021/12/28 03:23:20;;;;;;;87.65;35.05;;;;;;;;;;5030282;28;20045;-68
2021/12/28 03:25:46;;;;;;;84.70;34.08;;;;;;;;;;5029504;28;20038;-68
2021/12/28 03:28:32;;;;;;;91.10;34.25;;;7.20;99.90;;;;;;5030294;28;20072;-67
2021/12/28 03:31:00;;;;;;;84.13;33.63;;;7.20;99.90;;;;;;5030566;28;20042;-67
2021/12/28 03:33:28;;;;;;;82.63;35.38;;;7.30;99.90;;;;;;5030646;28;20056;-67
2021/12/28 03:35:55;;;;;;;93.45;35.97;;;;;;;;;;5046192;28;20041;-68
2021/12/28 03:38:22;;;;;;;77.32;32.17;;;7.30;99.90;;;;;;5050530;28;20068;-68
2021/12/28 03:40:48;;;;;;;70.35;30.73;;;7.20;99.90;;;;;;5049402;28;20116;-68
2021/12/28 03:43:14;;;;;;;61.55;27.95;;;7.00;99.90;;;;;;5050551;28;20048;-68
2021/12/28 03:45:41;;;;;;;71.30;31.55;;;7.10;99.90;;;;;;5049318;28;20071;-68
2021/12/28 03:48:07;;;;;;;95.75;36.05;;;;;;;;;;5032668;28;20056;-67
2021/12/28 03:50:35;;;;;;;88.53;37.15;;;7.10;99.90;;;;;;5049812;28;20040;-68
2021/12/28 03:53:01;;;;;;;98.00;37.22;;;7.20;99.90;;;;;;5051649;28;20037;-67
2021/12/28 03:55:28;;;;;;;74.10;30.75;;;;;;;;;;5053018;28;20041;-67
2021/12/28 03:57:56;;;;;;;84.43;33.58;;;7.20;99.90;;;;;;5054087;28;20041;-67
2021/12/28 04:00:23;;;;;;;70.35;31.25;;;;;;;;;;5053862;28;20048;-67
2021/12/28 04:02:49;;;;;;;83.45;32.70;;;;;;;;;;5054081;28;20037;-67
2021/12/28 04:05:16;;;;;;;61.05;28.90;;;;;;;;;;5035470;28;20045;-68
2021/12/28 04:07:42;;;;;;;75.60;30.05;;;;;;;;;;5054095;28;20112;-67
2021/12/28 04:10:10;;;;;;;66.18;29.55;;;;;;;;;;5053865;28;20083;-67
2021/12/28 04:12:37;;;;;;;57.90;27.15;;;7.20;99.90;;;;;;5069104;28;20037;-68
2021/12/28 04:15:04;;;;;;;73.32;30.58;;;;;;;;;;5053449;28;20106;-67
2021/12/28 04:17:31;;;;;;;56.28;25.48;;;;;;;;;;5053342;28;20044;-67
2021/12/28 04:19:57;;;;;;;59.67;27.15;;;7.20;99.90;;;;;;5053464;28;20053;-67
2021/12/28 04:22:23;;;;;;;64.25;25.75;;;;;;;;;;5053629;28;20509;-67
2021/12/28 04:24:49;;;;;;;56.58;26.25;;;;;;;;;;5053257;28;20140;-68
2021/12/28 04:27:15;;;;;;;58.45;25.75;;;;;;;;;;5035021;28;20083;-68
2021/12/28 04:29:41;;;;;;;52.55;27.27;;;;;;;;;;5035540;28;20053;-68
2021/12/28 04:32:07;;;;;;;58.45;26.65;;;7.30;99.90;;;;;;5052378;28;20060;-67
2021/12/28 04:34:33;;;;;;;65.85;30.65;;;;;;;;;;5052718;28;20045;-67
2021/12/28 04:36:59;;;;;;;62.88;27.50;;;;;;;;;;5052270;28;20094;-67
2021/12/28 04:39:25;;;;;;;51.67;25.65;;;;;;;;;;5053455;28;20513;-68
2021/12/28 04:41:51;;;;;;;57.50;27.23;;;;;;;;;;5052878;28;20199;-67
2021/12/28 04:44:23;;;;;;;56.88;27.05;;;;;;;;;;5034814;28;20080;-67
2021/12/28 04:46:50;;;;;;;52.38;25.63;;;;;;;;;;5052901;28;20278;-67
2021/12/28 04:49:17;;;;;;;54.47;25.48;;;;;;;;;;5052861;28;20085;-68
2021/12/28 04:51:42;;;;;;;59.08;26.90;;;7.30;99.90;;;;;;5051206;28;20127;-67
2021/12/28 04:54:12;;;;;;;54.78;25.45;;;;;;;;;;5052906;28;20121;-68
2021/12/28 04:56:38;;;;;;;85.97;32.65;;;;;;;;;;5022824;28;20076;-68
2021/12/28 04:59:04;;;;;;;49.25;26.25;;;;;;;;;;5053071;28;20399;-67
2021/12/28 05:01:30;;;;;;;57.58;25.90;;;;;;;;;;5051285;28;20076;-67
2021/12/28 05:03:56;;;;;;;61.65;27.42;;;;;;;;;;5051475;28;20084;-68
2021/12/28 05:06:22;;;;;;;54.35;25.48;;;;;;;;;;5051876;28;20041;-68
2021/12/28 05:08:48;;;;;;;52.20;23.98;;;;;;;;;;5052425;28;20099;-68
2021/12/28 05:11:14;;;;;;;52.20;25.10;;;;;;;;;;5052532;28;20114;-68
2021/12/28 05:13:41;;;;;;;52.00;26.20;;;7.30;99.90;;;;;;5051051;28;20450;-67
2021/12/28 05:16:10;;;;;;;57.00;25.13;;;;;;;;;;5051998;28;20037;-68
2021/12/28 05:18:36;;;;;;;56.42;25.25;;;;;;;;;;5052376;28;20476;-68
2021/12/28 05:21:02;;;;;;;46.95;23.38;;;;;;;;;;5052555;28;20396;-68
2021/12/28 05:23:28;;;;;;;48.70;23.23;;;;;;;;;;5050584;28;20048;-68
2021/12/28 05:25:54;;;;;;;51.75;24.55;;;;;;;;;;5046177;28;20041;-67
2021/12/28 05:28:19;;;;;;;56.00;25.77;;;7.30;99.90;;;;;;5051915;28;20029;-68
2021/12/28 05:30:45;;;;;;;50.83;23.98;;;7.10;99.90;;;;;;5052421;28;20044;-67
2021/12/28 05:33:11;;;;;;;45.15;22.75;;;;;;;;;;5034242;28;20048;-68
2021/12/28 05:35:37;;;;;;;44.80;21.63;;;;;;;;;;5049767;28;20048;-67
2021/12/28 05:38:03;;;;;;;53.70;23.70;;;;;;;;;;5036661;28;20065;-68
2021/12/28 05:40:29;;;;;;;47.63;22.30;;;;;;;;;;5032486;28;20127;-67
2021/12/28 05:42:54;;;;;;;38.47;21.55;;;7.00;99.90;;;;;;5030429;28;20175;-68
2021/12/28 05:45:20;;;;;;;48.53;21.65;;;;;;;;;;5039346;28;20044;-68
2021/12/28 05:47:47;;;;;;;46.97;22.17;;;;;;;;;;5026713;28;20040;-68
2021/12/28 05:50:14;;;;;;;42.35;21.80;;;;;;;;;;5008270;28;20137;-68
2021/12/28 05:52:40;;;;;;;35.13;18.90;;;;;;;;;;5038429;28;20344;-68
2021/12/28 05:55:06;;;;;;;42.28;20.70;;;;;;;;;;5023100;28;20087;-67
2021/12/28 05:57:32;;;;;;;39.97;19.30;;;7.20;99.90;;;;;;5037594;28;20395;-67
2021/12/28 05:59:58;;;;;;;40.97;20.80;;;;;;;;;;5034896;28;20056;-67
2021/12/28 06:02:24;;;;;;;37.72;19.52;;;;;;;;;;5034909;28;20075;-67
2021/12/28 06:04:50;;;;;;;48.60;22.55;;;7.10;99.90;;;;;;5041034;28;20071;-67
2021/12/28 06:07:16;;;;;;;41.88;20.17;;;;;;;;;;5041140;28;20041;-67
2021/12/28 06:09:42;;;;;;;38.10;18.45;;;;;;;;;;5035024;28;20033;-66
2021/12/28 06:12:08;;;;;;;44.08;19.75;;;7.30;99.90;;;;;;5046950;28;20040;-66
2021/12/28 06:14:34;;;;;;;37.40;18.65;;;7.20;99.90;;;;;;5021883;28;20041;-67
2021/12/28 06:17:00;;;;;;;37.28;18.05;;;;;;;;;;5050534;28;20185;-66
2021/12/28 06:19:26;;;;;;;37.92;19.48;;;;;;;;;;5050886;28;20049;-67
2021/12/28 06:21:52;;;;;;;28.75;15.77;;;;;;;;;;5032890;28;20044;-67
2021/12/28 06:24:18;;;;;;;36.50;18.25;;;;;;;;;;5050867;28;20132;-66
2021/12/28 06:26:44;;;;;;;39.67;19.95;;;7.30;99.90;;;;;;5051179;28;20123;-66
2021/12/28 06:29:11;;;;;;;36.40;19.15;;;;;;;;;;5051107;28;20089;-66
2021/12/28 06:31:37;;;;;;;35.22;18.15;;;;;;;;;;5051433;28;20037;-66
2021/12/28 06:34:04;;;;;;;34.35;18.38;;;7.20;99.90;;;;;;5044071;28;20128;-66
2021/12/28 06:36:30;;;;;;;35.95;18.60;;;7.50;99.90;;;;;;5039920;28;20151;-67
2021/12/28 06:38:56;;;;;;;34.22;18.95;;;;;;;;;;5050916;28;20371;-67
2021/12/28 06:41:22;;;;;;;34.58;16.83;;;7.20;99.90;;;;;;5051331;28;20120;-66
2021/12/28 06:43:49;;;;;;;32.25;18.80;;;;;;;;;;5050825;28;20052;-67
2021/12/28 06:46:15;;;;;;;31.75;16.95;;;;;;;;;;5050333;28;20045;-67
2021/12/28 06:48:41;;;;;;;38.83;18.38;;;;;;;;;;5064363;22;20510;-67
2021/12/28 06:51:08;;;;;;;30.58;17.42;;;;;;;;;;5050159;28;20041;-67
2021/12/28 06:53:34;;;;;;;38.13;19.23;;;;;;;;;;5051091;28;20068;-66
2021/12/28 06:56:00;;;;;;;33.15;16.25;;;;;;;;;;5048289;28;20099;-70
2021/12/28 06:58:26;;;;;;;36.00;19.00;;;;;;;;;;5024187;28;20119;-70
2021/12/28 07:00:52;;;;;;;37.42;18.27;;;;;;;;;;5044072;28;20128;-70
2021/12/28 07:03:18;;;;;;;33.47;17.33;;;;;;;;;;5013051;28;20458;-70
2021/12/28 07:05:44;;;;;;;33.60;17.33;;;7.30;99.90;;;;;;5008645;28;20125;-69
2021/12/28 07:08:10;;;;;;;35.42;17.55;;;;;;;;;;5012843;28;20041;-68
2021/12/28 07:10:36;;;;;;;30.55;16.92;;;;;;;;;;5012599;28;20044;-68
2021/12/28 07:13:02;;;;;;;29.45;16.50;;;;;;;;;;5030327;28;20045;-68
2021/12/28 07:15:28;;;;;;;27.60;16.17;;;;;;;;;;5037282;28;20037;-69
2021/12/28 07:17:54;;;;;;;29.40;16.05;;;;;;;;;;5024754;28;20545;-69
2021/12/28 07:20:20;;;;;;;28.55;15.25;;;;;;;;;;5048711;28;20048;-70
2021/12/28 07:22:46;;;;;;;34.65;17.55;;;;;;;;;;5012510;28;20102;-69
2021/12/28 07:25:11;;;;;;;29.70;15.70;;;7.20;99.90;;;;;;4995848;28;20114;-70
2021/12/28 07:27:38;;;;;;;33.22;17.17;;;7.40;99.90;;;;;;5030911;28;20085;-69
2021/12/28 07:30:06;;;;;;;29.92;15.73;;;;;;;;;;5000345;28;20049;-70
2021/12/28 07:32:32;;;;;;;30.83;16.73;;;;;;;;;;5016626;28;20114;-70
2021/12/28 07:34:58;;;;;;;33.65;15.90;;;7.50;99.90;;;;;;5016115;28;20119;-71
2021/12/28 07:37:23;;;;;;;33.40;15.80;;;7.30;99.90;;;;;;5016681;28;20512;-71
2021/12/28 07:39:50;;;;;;;29.83;16.38;;;;;;;;;;5034189;28;20034;-71
2021/12/28 07:42:17;;;;;;;27.73;15.73;;;7.40;99.90;;;;;;5016663;28;20061;-71
2021/12/28 07:44:43;;;;;;;29.45;15.65;;;7.40;99.90;;;;;;4999308;28;20041;-73
2021/12/28 07:47:09;;;;;;;28.15;15.13;;;;;;;;;;5016090;28;20033;-72
2021/12/28 07:49:35;;;;;;;27.73;15.10;;;7.40;99.90;;;;;;5000121;28;20029;-73
2021/12/28 07:52:01;;;;;;;29.10;14.30;;;;;;;;;;5016184;28;20492;-72
2021/12/28 07:54:27;;;;;;;31.70;15.80;;;7.30;99.90;;;;;;5015495;28;20561;-72
2021/12/28 07:56:53;;;;;;;28.05;14.18;;;;;;;;;;4998450;28;20041;-72
2021/12/28 07:59:19;;;;;;;26.63;14.60;;;;;;;;;;5016234;28;20046;-71
2021/12/28 08:01:45;;;;;;;25.73;13.45;;;;;;;;;;5013265;28;20052;-70
2021/12/28 08:04:11;;;;;;;31.23;13.98;;;;;;;;;;5031177;28;20476;-72
2021/12/28 08:06:37;;;;;;;28.27;12.57;;;;;;;;;;5013636;28;20384;-72
2021/12/28 08:09:03;;;;;;;20.27;12.25;;;7.30;99.90;;;;;;5014140;28;20037;-72
2021/12/28 08:11:30;;;;;;;28.55;13.48;;;;;;;;;;5014835;28;20052;-71
2021/12/28 08:13:55;;;;;;;25.88;12.90;;;;;;;;;;5044396;28;20450;-70
2021/12/28 08:16:21;;;;;;;25.45;12.48;;;;;;;;;;5024570;28;20037;-72
2021/12/28 08:18:47;;;;;;;26.30;12.50;;;7.40;99.90;;;;;;5022136;28;20037;-70
2021/12/28 08:21:13;;;;;;;21.52;11.82;;;7.40;99.90;;;;;;5025776;28;20482;-70
2021/12/28 08:23:39;;;;;;;22.98;11.90;;;;;;;;;;5023380;28;20041;-72
2021/12/28 08:26:05;;;;;;;25.02;12.70;;;;;;;;;;5022354;28;20041;-70
2021/12/28 08:28:31;;;;;;;25.33;11.15;;;;;;;;;;5020944;28;20581;-72
2021/12/28 08:30:57;;;;;;;26.85;10.98;;;;;;;;;;5022947;28;20084;-70
2021/12/28 08:33:24;;;;;;;22.55;10.88;;;7.40;99.90;;;;;;5021367;28;20041;-70
2021/12/28 08:35:50;;;;;;;22.52;10.65;;;7.60;99.90;;;;;;5022900;28;20038;-68
2021/12/28 08:38:16;;;;;;;23.58;11.88;;;;;;;;;;5032258;28;20048;-68
2021/12/28 08:40:43;;;;;;;21.08;10.35;;;;;;;;;;5053175;28;20507;-68
2021/12/28 08:43:09;;;;;;;23.38;10.65;;;;;;;;;;5034843;28;20429;-69
2021/12/28 08:45:36;;;;;;;25.20;10.63;;;;;;;;;;5034691;28;20445;-69
2021/12/28 08:48:02;;;;;;;17.92;9.48;;;;;;;;;;5053165;28;20041;-68
2021/12/28 08:50:28;;;;;;;24.88;10.95;;;;;;;;;;5052737;28;20041;-71
2021/12/28 08:52:54;;;;;;;24.35;11.48;;;;;;;;;;5052669;28;20132;-72
2021/12/28 08:55:22;;;;;;;22.02;10.40;;;;;;;;;;5052390;28;20090;-69
2021/12/28 08:57:47;;;;;;;22.85;9.38;;;7.70;99.90;;;;;;5034986;28;20045;-70
2021/12/28 09:00:15;;;;;;;20.80;10.27;;;;;;;;;;5028278;28;20045;-72
2021/12/28 09:02:41;;;;;;;22.88;10.32;;;;;;;;;;5027196;28;20124;-69
2021/12/28 09:05:08;;;;;;;21.02;10.90;;;;;;;;;;5043974;28;20049;-69
2021/12/28 09:07:34;;;;;;;21.25;10.10;;;;;;;;;;5034874;28;20049;-69
2021/12/28 09:10:00;;;;;;;18.48;9.57;;;;;;;;;;5034839;28;20032;-70
2021/12/28 09:12:26;;;;;;;21.05;10.57;;;;;;;;;;5032241;28;20041;-71
2021/12/28 09:14:52;;;;;;;21.42;9.98;;;;;;;;;;5024755;28;20041;-72
2021/12/28 09:17:18;;;;;;;25.90;10.15;;;;;;;;;;5024696;28;20080;-69
2021/12/28 09:19:44;;;;;;;21.83;9.68;;;;;;;;;;5034589;28;20577;-69
2021/12/28 09:22:11;;;;;;;25.48;10.10;;;;;;;;;;5051939;28;20044;-69
2021/12/28 09:24:38;;;;;;;20.63;9.55;;;8.60;99.90;;;;;;5051833;28;20090;-69
2021/12/28 09:27:04;;;;;;;22.88;9.05;;;8.10;99.90;;;;;;5051981;28;20045;-69
2021/12/28 09:29:31;;;;;;;23.60;11.63;;;8.00;99.90;;;;;;5033683;28;20041;-68
2021/12/28 09:31:59;;;;;;;20.40;10.50;;;8.70;99.90;;;;;;5052716;28;20083;-69
2021/12/28 09:34:25;;;;;;;21.38;10.00;;;;;;;;;;5034093;28;20052;-69
2021/12/28 09:36:51;;;;;;;20.70;10.68;;;8.10;99.90;;;;;;5033765;28;20124;-69
2021/12/28 09:39:22;;;;;;;23.77;11.18;;;8.20;99.90;;;;;;5034700;28;20091;-68
2021/12/28 09:41:50;;;;;;;20.00;10.05;;;;;;;;;;5033931;28;20117;-69
2021/12/28 09:44:16;;;;;;;19.75;10.95;;;;;;;;;;5022096;28;20543;-68
2021/12/28 09:46:42;;;;;;;25.75;12.20;;;;;;;;;;5046688;28;20033;-68
2021/12/28 09:49:08;;;;;;;23.50;11.23;;;;;;;;;;5039699;28;20041;-68
2021/12/28 09:51:34;;;;;;;24.30;12.55;;;;;;;;;;5039302;28;20519;-67
2021/12/28 09:54:00;;;;;;;21.42;11.32;;;8.00;99.90;;;;;;5037669;28;20098;-69
2021/12/28 09:56:26;;;;;;;23.92;10.98;;;;;;;;;;5047591;28;20487;-69
2021/12/28 09:58:52;;;;;;;21.13;10.77;;;8.00;99.90;;;;;;5024998;28;20038;-68
2021/12/28 10:01:20;;;;;;;22.30;11.98;;;8.00;99.90;;;;;;5018549;28;20094;-68
2021/12/28 10:03:46;;;;;;;23.27;11.77;;;;;;;;;;5039691;28;20407;-68
2021/12/28 10:06:19;;;;;;;20.33;11.70;;;;;;;;;;5038829;28;20045;-70
2021/12/28 10:08:45;;;;;;;25.33;12.07;;;;;;;;;;5026788;28;20068;-69
2021/12/28 10:11:12;;;;;;;26.60;12.00;;;;;;;;;;5029159;28;20380;-72
2021/12/28 10:13:38;;;;;;;17.98;11.82;;;;;;;;;;5000617;28;20044;-69
2021/12/28 10:16:04;;;;;;;20.55;11.00;;;8.10;99.90;;;;;;5051088;28;20045;-70
2021/12/28 10:18:29;;;;;;;22.48;12.13;;;8.10;99.90;;;;;;5033187;28;20410;-68
2021/12/28 10:20:57;;;;;;;24.42;12.13;;;;;;;;;;5051110;28;20040;-68
2021/12/28 10:23:25;;;;;;;24.33;12.65;;;;;;;;;;5051448;28;20041;-67
2021/12/28 10:25:56;;;;;;;21.50;11.77;;;;;;;;;;5033009;28;20127;-68
2021/12/28 10:28:32;;;;;;;25.33;12.90;;;;;;;;;;5033470;28;20033;-67
2021/12/28 10:31:10;;;;;;;21.90;11.35;;;;;;;;;;5051341;28;20041;-67
2021/12/28 10:33:37;;;;;;;24.17;11.68;;;8.50;99.90;;;;;;5033573;28;20749;-68
2021/12/28 10:36:09;;;;;;;23.88;13.80;;;;;;;;;;5032147;28;20051;-67
2021/12/28 10:38:36;;;;;;;23.02;14.25;;;;;;;;;;5032845;28;20049;-69
2021/12/28 10:41:13;;;;;;;18.13;11.18;;;;;;;;;;5033143;28;20056;-69
2021/12/28 10:43:40;;;;;;;21.77;12.73;;;;;;;;;;5016291;28;20124;-69
2021/12/28 10:46:12;;;;;;;21.00;12.48;;;8.60;99.90;;;;;;5015540;28;20045;-70
2021/12/28 10:48:45;;;;;;;20.27;11.88;;;;;;;;;;5050591;28;20155;-71
2021/12/28 10:51:18;;;;;;;23.13;12.98;;;8.70;99.90;;;;;;5050597;28;20056;-70
2021/12/28 10:56:41;;;;;;;17.70;10.77;;;;;;;;;;5032572;28;20105;-71
2021/12/28 10:59:09;;;;;;;20.90;13.18;;;;;;;;;;5032445;28;20045;-71
2021/12/28 11:01:38;;;;;;;17.52;10.90;;;8.60;99.90;;;;;;5032443;28;20044;-71
2021/12/28 11:04:09;;;;;;;18.35;11.13;;;8.40;99.90;;;;;;5030468;28;20048;-71
2021/12/28 11:06:41;;;;;;;21.13;12.70;;;8.80;99.90;;;;;;5025057;28;20049;-75
2021/12/28 11:09:10;;;;;;;16.48;10.48;;;;;;;;;;5016506;28;20440;-73
2021/12/28 11:11:39;;;;;;;22.60;12.48;;;7.90;99.90;;;;;;5005268;28;20513;-74
2021/12/28 11:14:06;;;;;;;17.88;10.80;;;;;;;;;;5024825;28;20052;-73
2021/12/28 11:16:33;;;;;;;18.92;10.43;;;;;;;;;;5018857;28;20661;-73
2021/12/28 11:19:06;;;;;;;21.27;12.20;;;7.80;99.90;;;;;;5009962;28;20483;-72
2021/12/28 11:21:33;;;;;;;17.88;11.75;;;;;;;;;;5026163;28;20037;-72
2021/12/28 11:24:03;;;;;;;17.85;10.68;;;;;;;;;;5024654;28;20050;-73
2021/12/28 11:26:32;;;;;;;17.17;10.27;;;;;;;;;;5010732;28;20071;-74
2021/12/28 11:28:58;;;;;;;15.27;9.98;;;;;;;;;;5042925;28;20392;-74
2021/12/28 11:31:26;;;;;;;15.18;9.80;;;;;;;;;;5031506;28;20036;-73
2021/12/28 11:34:01;;;;;;;15.45;9.68;;;;;;;;;;5023134;28;20051;-73
2021/12/28 11:36:34;;;;;;;16.63;9.98;;;8.30;99.90;;;;;;5042062;28;20038;-74
2021/12/28 11:39:03;;;;;;;14.07;9.27;;;;;;;;;;5026656;28;20037;-76
2021/12/28 11:41:30;;;;;;;14.07;9.73;;;8.00;99.90;;;;;;5025167;28;20111;-73
2021/12/28 11:43:56;;;;;;;12.93;8.30;;;8.40;99.90;;;;;;5007606;28;20044;-76
2021/12/28 11:46:23;;;;;;;12.15;8.32;;;;;;;;;;5008931;28;20510;-73
2021/12/28 11:48:49;;;;;;;14.82;8.82;;;;;;;;;;5003772;28;20120;-71
2021/12/28 11:51:15;;;;;;;12.82;8.52;;;;;;;;;;5018094;28;20069;-73
2021/12/28 11:53:44;;;;;;;11.82;7.60;;;;;;;;;;5020026;28;20539;-74
2021/12/28 11:56:11;;;;;;;13.60;8.65;;;;;;;;;;5018790;28;20495;-73
2021/12/28 11:58:48;;;;;;;11.45;8.05;;;;;;;;;;5011786;28;20034;-73
2021/12/28 12:01:33;;;;;;;16.27;10.23;;;;;;;;;;5005696;28;20045;-73
2021/12/28 12:03:58;;;;;;;10.90;7.82;;;;;;;;;;5013545;28;20040;-73
2021/12/28 12:06:44;;;;;;;16.50;7.97;;;;;;;;;;5034752;28;20124;-73
2021/12/28 12:09:10;;;;;;;11.77;7.38;;;;;;;;;;5027583;28;20052;-72
2021/12/28 12:12:08;;;;;;;12.57;7.75;;;8.80;99.90;;;;;;5022041;28;20037;-72
2021/12/28 12:14:53;;;;;;;12.02;7.80;;;;;;;;;;5038921;28;20426;-72
2021/12/28 12:17:31;;;;;;;14.38;8.35;;;;;;;;;;5028900;28;20044;-72
2021/12/28 12:20:03;;;;;;;11.38;7.78;;;8.60;99.90;;;;;;5024187;28;20059;-72
2021/12/28 12:22:32;;;;;;;20.10;10.82;;;9.30;99.90;;;;;;5027809;28;20140;-71
2021/12/28 12:25:04;;;;;;;12.75;8.32;;;;;;;;;;5021361;28;20037;-72
2021/12/28 12:27:47;;;;;;;14.52;8.65;;;8.40;99.90;;;;;;5004906;28;20049;-71
2021/12/28 12:30:25;;;;;;;15.23;8.85;;;8.50;99.90;;;;;;5009379;28;20480;-71
2021/12/28 12:33:05;;;;;;;11.13;7.00;;;;;;;;;;5027681;28;20340;-71
2021/12/28 12:35:41;;;;;;;13.13;7.53;;;8.90;99.90;;;;;;5027909;28;20052;-71
2021/12/28 12:38:10;;;;;;;13.93;7.40;;;;;;;;;;5043223;28;20117;-71
2021/12/28 12:40:51;;;;;;;12.07;7.43;;;;;;;;;;5021243;28;20496;-71
2021/12/28 12:43:18;;;;;;;12.15;6.40;;;8.90;99.90;;;;;;5024500;28;20041;-70
2021/12/28 12:45:54;;;;;;;10.88;7.18;;;;;;;;;;5035121;28;20514;-72
2021/12/28 12:48:35;;;;;;;11.93;7.82;;;;;;;;;;5015468;28;20041;-70
2021/12/28 12:51:20;;;;;;;15.27;7.88;;;;;;;;;;5024183;23;20147;-59
2021/12/28 12:53:46;;;;;;;;;;;;;;;;;;5030312;28;20495;-59
2021/12/28 12:56:17;;;;;;;33.83;19.92;;;9.40;99.90;;;;;;5031164;28;19917;-59
2021/12/28 12:58:47;;;;;;;16.17;10.63;;;;;;;;;;5044479;28;20750;-61
2021/12/28 13:01:21;;;;;;;43.13;30.90;;;8.60;99.90;;;;;;5052063;28;20110;-59
2021/12/28 13:03:47;;;;;;;45.80;32.47;;;;;;;;;;5051660;28;20072;-59
2021/12/28 13:06:13;;;;;;;47.38;33.35;;;8.90;99.90;;;;;;5051982;28;20419;-59
2021/12/28 13:08:39;;;;;;;40.90;27.40;;;;;;;;;;5052111;28;20044;-59
2021/12/28 13:11:05;;;;;;;36.42;25.27;;;;;;;;;;5042610;28;20041;-59
2021/12/28 13:13:32;;;;;;;33.50;22.48;;;;;;;;;;5040340;28;20045;-58
2021/12/28 13:15:58;;;;;;;25.27;15.32;;;;;;;;;;5050027;28;20097;-59
2021/12/28 13:18:23;;;;;;;20.20;13.07;;;;;;;;;;5051776;28;20398;-59
2021/12/28 13:20:49;;;;;;;15.25;9.45;;;;;;;;;;5033850;28;20044;-59
2021/12/28 13:23:15;;;;;;;13.20;8.23;;;8.80;99.90;;;;;;5034675;28;20131;-60
2021/12/28 13:25:47;;;;;;;16.02;10.05;;;9.00;99.90;;;;;;5049868;28;20503;-59
2021/12/28 13:28:18;;;;;;;20.20;12.05;;;9.30;99.90;;;;;;5033914;28;20049;-59
2021/12/28 13:30:44;;;;;;;27.00;17.88;;;;;;;;;;5051995;28;20036;-59
2021/12/28 13:33:19;;;;;;;31.15;23.10;;;8.90;99.90;;;;;;5051700;28;20222;-59
2021/12/28 13:35:45;;;;;;;29.95;22.67;;;;;;;;;;5051546;28;20399;-59
2021/12/28 13:38:13;;;;;;;31.67;19.42;;;;;;;;;;5051062;28;20349;-59
2021/12/28 13:40:43;;;;;;;22.23;13.10;;;;;;;;;;5052131;28;20388;-60
2021/12/28 13:43:14;;;;;;;14.75;9.48;;;;;;;;;;5051448;28;20060;-60
2021/12/28 13:45:42;;;;;;;25.38;9.93;;;;;;;;;;5050136;28;20044;-60
2021/12/28 13:48:11;;;;;;;16.38;9.55;;;;;;;;;;5051533;28;20045;-60
2021/12/28 13:50:38;;;;;;;15.98;9.63;;;8.80;99.90;;;;;;5051013;28;20132;-60
2021/12/28 13:53:04;;;;;;;15.35;9.35;;;;;;;;;;5052010;28;20045;-59
2021/12/28 13:55:35;;;;;;;19.08;10.75;;;;;;;;;;5050907;28;20036;-59